sensor_id;sensor_type;location;lat;lon;timestamp;temperature;humidity
72440;DHT22;60446;50.752;4.352;2023-04-03T00:01:20;0.80;82.30
72440;DHT22;60446;50.752;4.352;2023-04-03T00:03:48;0.80;82.50
72440;DHT22;60446;50.752;4.352;2023-04-03T00:06:15;0.70;82.40
72440;DHT22;60446;50.752;4.352;2023-04-03T00:08:42;0.80;82.40
72440;DHT22;60446;50.752;4.352;2023-04-03T00:11:09;0.80;82.50
72440;DHT22;60446;50.752;4.352;2023-04-03T00:13:37;0.80;82.30
72440;DHT22;60446;50.752;4.352;2023-04-03T00:16:06;0.70;82.30
72440;DHT22;60446;50.752;4.352;2023-04-03T00:18:34;0.70;81.60
72440;DHT22;60446;50.752;4.352;2023-04-03T00:21:03;0.60;81.70
72440;DHT22;60446;50.752;4.352;2023-04-03T00:23:30;0.50;82.20
72440;DHT22;60446;50.752;4.352;2023-04-03T00:25:58;0.50;82.50
72440;DHT22;60446;50.752;4.352;2023-04-03T00:28:25;0.60;82.40
72440;DHT22;60446;50.752;4.352;2023-04-03T00:30:53;0.70;81.80
72440;DHT22;60446;50.752;4.352;2023-04-03T00:33:20;0.70;81.90
72440;DHT22;60446;50.752;4.352;2023-04-03T00:35:51;0.80;81.40
72440;DHT22;60446;50.752;4.352;2023-04-03T00:38:18;0.90;81.10
72440;DHT22;60446;50.752;4.352;2023-04-03T00:40:48;0.90;80.90
72440;DHT22;60446;50.752;4.352;2023-04-03T00:43:24;0.90;80.70
72440;DHT22;60446;50.752;4.352;2023-04-03T00:45:54;0.90;80.80
72440;DHT22;60446;50.752;4.352;2023-04-03T00:50:53;0.80;81.00
72440;DHT22;60446;50.752;4.352;2023-04-03T00:53:34;0.80;80.90
72440;DHT22;60446;50.752;4.352;2023-04-03T00:56:06;0.90;80.20
72440;DHT22;60446;50.752;4.352;2023-04-03T00:58:59;0.90;79.90
72440;DHT22;60446;50.752;4.352;2023-04-03T01:01:29;0.90;79.80
72440;DHT22;60446;50.752;4.352;2023-04-03T01:03:59;0.80;79.90
72440;DHT22;60446;50.752;4.352;2023-04-03T01:06:30;0.80;79.80
72440;DHT22;60446;50.752;4.352;2023-04-03T01:09:05;0.80;79.50
72440;DHT22;60446;50.752;4.352;2023-04-03T01:11:33;0.80;79.20
72440;DHT22;60446;50.752;4.352;2023-04-03T01:14:01;0.90;78.80
72440;DHT22;60446;50.752;4.352;2023-04-03T01:16:29;0.90;78.90
72440;DHT22;60446;50.752;4.352;2023-04-03T01:19:00;0.90;78.60
72440;DHT22;60446;50.752;4.352;2023-04-03T01:21:41;0.90;78.80
72440;DHT22;60446;50.752;4.352;2023-04-03T01:24:33;0.90;78.70
72440;DHT22;60446;50.752;4.352;2023-04-03T01:27:06;0.90;78.50
72440;DHT22;60446;50.752;4.352;2023-04-03T01:29:34;0.90;78.60
72440;DHT22;60446;50.752;4.352;2023-04-03T01:32:03;0.90;78.40
72440;DHT22;60446;50.752;4.352;2023-04-03T01:34:31;0.90;78.30
72440;DHT22;60446;50.752;4.352;2023-04-03T01:36:58;0.90;78.30
72440;DHT22;60446;50.752;4.352;2023-04-03T01:39:26;0.90;78.40
72440;DHT22;60446;50.752;4.352;2023-04-03T01:41:53;0.90;78.40
72440;DHT22;60446;50.752;4.352;2023-04-03T01:44:27;0.90;78.30
72440;DHT22;60446;50.752;4.352;2023-04-03T01:46:55;0.80;78.50
72440;DHT22;60446;50.752;4.352;2023-04-03T01:49:24;0.80;78.50
72440;DHT22;60446;50.752;4.352;2023-04-03T01:51:51;0.80;78.40
72440;DHT22;60446;50.752;4.352;2023-04-03T01:54:18;0.70;78.70
72440;DHT22;60446;50.752;4.352;2023-04-03T01:56:46;0.70;78.70
72440;DHT22;60446;50.752;4.352;2023-04-03T01:59:13;0.70;78.80
72440;DHT22;60446;50.752;4.352;2023-04-03T02:01:44;0.70;78.80
72440;DHT22;60446;50.752;4.352;2023-04-03T02:04:12;0.70;78.70
72440;DHT22;60446;50.752;4.352;2023-04-03T02:06:40;0.60;78.60
72440;DHT22;60446;50.752;4.352;2023-04-03T02:09:07;0.60;78.90
72440;DHT22;60446;50.752;4.352;2023-04-03T02:11:34;0.60;78.90
72440;DHT22;60446;50.752;4.352;2023-04-03T02:14:01;0.60;78.70
72440;DHT22;60446;50.752;4.352;2023-04-03T02:16:30;0.60;78.70
72440;DHT22;60446;50.752;4.352;2023-04-03T02:18:57;0.60;78.90
72440;DHT22;60446;50.752;4.352;2023-04-03T02:21:24;0.60;78.70
72440;DHT22;60446;50.752;4.352;2023-04-03T02:23:53;0.50;79.10
72440;DHT22;60446;50.752;4.352;2023-04-03T02:26:20;0.50;79.00
72440;DHT22;60446;50.752;4.352;2023-04-03T02:28:47;0.50;79.00
72440;DHT22;60446;50.752;4.352;2023-04-03T02:31:15;0.50;78.80
72440;DHT22;60446;50.752;4.352;2023-04-03T02:33:44;0.40;78.90
72440;DHT22;60446;50.752;4.352;2023-04-03T02:36:14;0.40;78.90
72440;DHT22;60446;50.752;4.352;2023-04-03T02:38:44;0.40;78.90
72440;DHT22;60446;50.752;4.352;2023-04-03T02:41:12;0.40;79.10
72440;DHT22;60446;50.752;4.352;2023-04-03T02:43:40;0.30;78.90
72440;DHT22;60446;50.752;4.352;2023-04-03T02:46:07;0.40;79.00
72440;DHT22;60446;50.752;4.352;2023-04-03T02:48:35;0.30;79.20
72440;DHT22;60446;50.752;4.352;2023-04-03T02:51:03;0.40;78.90
72440;DHT22;60446;50.752;4.352;2023-04-03T02:53:31;0.30;78.90
72440;DHT22;60446;50.752;4.352;2023-04-03T02:56:02;0.30;79.20
72440;DHT22;60446;50.752;4.352;2023-04-03T02:58:30;0.30;79.00
72440;DHT22;60446;50.752;4.352;2023-04-03T03:00:58;0.20;79.20
72440;DHT22;60446;50.752;4.352;2023-04-03T03:03:25;0.20;79.30
72440;DHT22;60446;50.752;4.352;2023-04-03T03:06:08;0.20;80.00
72440;DHT22;60446;50.752;4.352;2023-04-03T03:08:40;0.20;80.50
72440;DHT22;60446;50.752;4.352;2023-04-03T03:11:08;0.20;80.30
72440;DHT22;60446;50.752;4.352;2023-04-03T03:13:36;0.10;80.90
72440;DHT22;60446;50.752;4.352;2023-04-03T03:16:04;0.00;81.30
72440;DHT22;60446;50.752;4.352;2023-04-03T03:18:32;0.00;81.20
72440;DHT22;60446;50.752;4.352;2023-04-03T03:21:01;0.00;81.20
72440;DHT22;60446;50.752;4.352;2023-04-03T03:23:30;0.00;81.20
72440;DHT22;60446;50.752;4.352;2023-04-03T03:26:01;-0.10;81.30
72440;DHT22;60446;50.752;4.352;2023-04-03T03:28:30;-0.10;81.90
72440;DHT22;60446;50.752;4.352;2023-04-03T03:30:57;-0.10;81.90
72440;DHT22;60446;50.752;4.352;2023-04-03T03:33:26;-0.20;81.70
72440;DHT22;60446;50.752;4.352;2023-04-03T03:35:53;-0.20;82.10
72440;DHT22;60446;50.752;4.352;2023-04-03T03:38:22;-0.20;82.10
72440;DHT22;60446;50.752;4.352;2023-04-03T03:40:51;-0.20;82.10
72440;DHT22;60446;50.752;4.352;2023-04-03T03:43:20;-0.20;81.90
72440;DHT22;60446;50.752;4.352;2023-04-03T03:45:53;-0.20;82.10
72440;DHT22;60446;50.752;4.352;2023-04-03T03:48:23;-0.30;82.20
72440;DHT22;60446;50.752;4.352;2023-04-03T03:50:50;-0.40;81.40
72440;DHT22;60446;50.752;4.352;2023-04-03T03:53:21;-0.30;81.50
72440;DHT22;60446;50.752;4.352;2023-04-03T03:55:51;-0.30;81.50
72440;DHT22;60446;50.752;4.352;2023-04-03T03:58:21;-0.40;81.10
72440;DHT22;60446;50.752;4.352;2023-04-03T04:00:49;-0.40;81.40
72440;DHT22;60446;50.752;4.352;2023-04-03T04:03:16;-0.40;81.60
72440;DHT22;60446;50.752;4.352;2023-04-03T04:05:46;-0.50;81.30
72440;DHT22;60446;50.752;4.352;2023-04-03T04:08:14;-0.50;81.20
72440;DHT22;60446;50.752;4.352;2023-04-03T04:10:43;-0.50;81.50
72440;DHT22;60446;50.752;4.352;2023-04-03T04:13:12;-0.60;81.80
72440;DHT22;60446;50.752;4.352;2023-04-03T04:15:40;-0.60;81.90
72440;DHT22;60446;50.752;4.352;2023-04-03T04:18:07;-0.60;81.40
72440;DHT22;60446;50.752;4.352;2023-04-03T04:20:34;-0.60;81.20
72440;DHT22;60446;50.752;4.352;2023-04-03T04:23:01;-0.60;81.00
72440;DHT22;60446;50.752;4.352;2023-04-03T04:25:30;-0.70;81.10
72440;DHT22;60446;50.752;4.352;2023-04-03T04:27:57;-0.70;81.00
72440;DHT22;60446;50.752;4.352;2023-04-03T04:30:24;-0.70;81.00
72440;DHT22;60446;50.752;4.352;2023-04-03T04:32:53;-0.70;81.20
72440;DHT22;60446;50.752;4.352;2023-04-03T04:35:21;-0.70;81.30
72440;DHT22;60446;50.752;4.352;2023-04-03T04:37:50;-0.80;81.30
72440;DHT22;60446;50.752;4.352;2023-04-03T04:40:18;-0.70;81.60
72440;DHT22;60446;50.752;4.352;2023-04-03T04:42:45;-0.70;81.40
72440;DHT22;60446;50.752;4.352;2023-04-03T04:45:12;-0.70;81.40
72440;DHT22;60446;50.752;4.352;2023-04-03T04:47:42;-0.70;81.20
72440;DHT22;60446;50.752;4.352;2023-04-03T04:50:09;-0.70;81.20
72440;DHT22;60446;50.752;4.352;2023-04-03T04:52:38;-0.60;81.10
72440;DHT22;60446;50.752;4.352;2023-04-03T04:55:07;-0.60;80.90
72440;DHT22;60446;50.752;4.352;2023-04-03T04:57:34;-0.60;81.00
72440;DHT22;60446;50.752;4.352;2023-04-03T05:00:03;-0.60;80.90
72440;DHT22;60446;50.752;4.352;2023-04-03T05:02:31;-0.60;80.90
72440;DHT22;60446;50.752;4.352;2023-04-03T05:04:58;-0.60;80.90
72440;DHT22;60446;50.752;4.352;2023-04-03T05:07:29;-0.60;80.80
72440;DHT22;60446;50.752;4.352;2023-04-03T05:09:58;-0.60;80.80
72440;DHT22;60446;50.752;4.352;2023-04-03T05:12:25;-0.60;80.70
72440;DHT22;60446;50.752;4.352;2023-04-03T05:14:57;-0.60;80.60
72440;DHT22;60446;50.752;4.352;2023-04-03T05:17:26;-0.60;80.70
72440;DHT22;60446;50.752;4.352;2023-04-03T05:19:55;-0.60;80.80
72440;DHT22;60446;50.752;4.352;2023-04-03T05:22:25;-0.60;80.70
72440;DHT22;60446;50.752;4.352;2023-04-03T05:24:55;-0.60;80.70
72440;DHT22;60446;50.752;4.352;2023-04-03T05:27:23;-0.60;80.80
72440;DHT22;60446;50.752;4.352;2023-04-03T05:29:54;-0.60;80.90
72440;DHT22;60446;50.752;4.352;2023-04-03T05:32:23;-0.60;80.60
72440;DHT22;60446;50.752;4.352;2023-04-03T05:35:00;-0.50;80.40
72440;DHT22;60446;50.752;4.352;2023-04-03T05:37:28;-0.50;80.40
72440;DHT22;60446;50.752;4.352;2023-04-03T05:39:57;-0.60;80.50
72440;DHT22;60446;50.752;4.352;2023-04-03T05:42:24;-0.50;80.30
72440;DHT22;60446;50.752;4.352;2023-04-03T05:44:51;-0.50;80.10
72440;DHT22;60446;50.752;4.352;2023-04-03T05:47:19;-0.50;79.90
72440;DHT22;60446;50.752;4.352;2023-04-03T05:49:47;-0.40;79.90
72440;DHT22;60446;50.752;4.352;2023-04-03T05:52:30;-0.40;79.80
72440;DHT22;60446;50.752;4.352;2023-04-03T05:55:00;-0.40;79.70
72440;DHT22;60446;50.752;4.352;2023-04-03T05:57:29;-0.30;79.50
72440;DHT22;60446;50.752;4.352;2023-04-03T05:59:57;-0.30;79.80
72440;DHT22;60446;50.752;4.352;2023-04-03T06:02:25;-0.20;79.70
72440;DHT22;60446;50.752;4.352;2023-04-03T06:04:53;-0.30;80.20
72440;DHT22;60446;50.752;4.352;2023-04-03T06:07:22;-0.20;79.70
72440;DHT22;60446;50.752;4.352;2023-04-03T06:09:51;-0.20;79.70
72440;DHT22;60446;50.752;4.352;2023-04-03T06:12:19;-0.10;79.70
72440;DHT22;60446;50.752;4.352;2023-04-03T06:14:46;-0.10;79.60
72440;DHT22;60446;50.752;4.352;2023-04-03T06:17:15;0.00;79.20
72440;DHT22;60446;50.752;4.352;2023-04-03T06:19:44;0.00;79.00
72440;DHT22;60446;50.752;4.352;2023-04-03T06:22:12;0.10;78.70
72440;DHT22;60446;50.752;4.352;2023-04-03T06:24:40;0.20;78.70
72440;DHT22;60446;50.752;4.352;2023-04-03T06:27:10;0.20;78.60
72440;DHT22;60446;50.752;4.352;2023-04-03T06:29:38;0.30;78.30
72440;DHT22;60446;50.752;4.352;2023-04-03T06:32:05;0.40;78.00
72440;DHT22;60446;50.752;4.352;2023-04-03T06:34:32;0.40;78.40
72440;DHT22;60446;50.752;4.352;2023-04-03T06:37:00;0.50;78.40
72440;DHT22;60446;50.752;4.352;2023-04-03T06:39:27;0.60;77.60
72440;DHT22;60446;50.752;4.352;2023-04-03T06:41:54;0.80;76.80
72440;DHT22;60446;50.752;4.352;2023-04-03T06:44:29;0.80;76.70
72440;DHT22;60446;50.752;4.352;2023-04-03T06:46:56;1.00;76.40
72440;DHT22;60446;50.752;4.352;2023-04-03T06:49:23;1.10;76.50
72440;DHT22;60446;50.752;4.352;2023-04-03T06:51:51;1.20;75.00
72440;DHT22;60446;50.752;4.352;2023-04-03T06:54:19;1.30;75.90
72440;DHT22;60446;50.752;4.352;2023-04-03T06:56:46;1.50;74.90
72440;DHT22;60446;50.752;4.352;2023-04-03T06:59:13;1.60;74.80
72440;DHT22;60446;50.752;4.352;2023-04-03T07:01:41;1.60;74.60
72440;DHT22;60446;50.752;4.352;2023-04-03T07:04:09;1.70;75.00
72440;DHT22;60446;50.752;4.352;2023-04-03T07:06:36;1.80;74.50
72440;DHT22;60446;50.752;4.352;2023-04-03T07:09:03;1.90;74.50
72440;DHT22;60446;50.752;4.352;2023-04-03T07:11:30;2.00;73.50
72440;DHT22;60446;50.752;4.352;2023-04-03T07:13:57;2.10;74.40
72440;DHT22;60446;50.752;4.352;2023-04-03T07:16:25;2.10;73.00
72440;DHT22;60446;50.752;4.352;2023-04-03T07:18:52;2.10;73.10
72440;DHT22;60446;50.752;4.352;2023-04-03T07:21:19;2.20;74.30
72440;DHT22;60446;50.752;4.352;2023-04-03T07:23:47;2.30;74.90
72440;DHT22;60446;50.752;4.352;2023-04-03T07:26:15;2.40;73.40
72440;DHT22;60446;50.752;4.352;2023-04-03T07:28:42;2.50;73.80
72440;DHT22;60446;50.752;4.352;2023-04-03T07:31:11;2.60;74.10
72440;DHT22;60446;50.752;4.352;2023-04-03T07:33:41;2.60;74.60
72440;DHT22;60446;50.752;4.352;2023-04-03T07:36:09;2.70;72.50
72440;DHT22;60446;50.752;4.352;2023-04-03T07:38:37;2.80;74.00
72440;DHT22;60446;50.752;4.352;2023-04-03T07:41:05;2.90;72.40
72440;DHT22;60446;50.752;4.352;2023-04-03T07:43:32;2.90;72.00
72440;DHT22;60446;50.752;4.352;2023-04-03T07:46:01;2.90;71.90
72440;DHT22;60446;50.752;4.352;2023-04-03T07:48:29;3.00;71.00
72440;DHT22;60446;50.752;4.352;2023-04-03T07:50:59;3.00;72.20
72440;DHT22;60446;50.752;4.352;2023-04-03T07:53:28;3.10;72.50
72440;DHT22;60446;50.752;4.352;2023-04-03T07:55:59;3.20;71.40
72440;DHT22;60446;50.752;4.352;2023-04-03T07:58:26;3.30;71.20
72440;DHT22;60446;50.752;4.352;2023-04-03T08:00:53;3.40;71.20
72440;DHT22;60446;50.752;4.352;2023-04-03T08:03:21;3.40;70.30
72440;DHT22;60446;50.752;4.352;2023-04-03T08:05:49;3.40;71.10
72440;DHT22;60446;50.752;4.352;2023-04-03T08:08:19;3.50;69.40
72440;DHT22;60446;50.752;4.352;2023-04-03T08:10:49;3.40;68.10
72440;DHT22;60446;50.752;4.352;2023-04-03T08:13:18;3.40;70.80
72440;DHT22;60446;50.752;4.352;2023-04-03T08:15:47;3.50;68.90
72440;DHT22;60446;50.752;4.352;2023-04-03T08:18:15;3.50;69.20
72440;DHT22;60446;50.752;4.352;2023-04-03T08:20:43;3.60;68.10
72440;DHT22;60446;50.752;4.352;2023-04-03T08:23:10;3.70;69.60
72440;DHT22;60446;50.752;4.352;2023-04-03T08:25:41;3.70;69.30
72440;DHT22;60446;50.752;4.352;2023-04-03T08:28:10;3.80;68.70
72440;DHT22;60446;50.752;4.352;2023-04-03T08:30:41;4.00;67.70
72440;DHT22;60446;50.752;4.352;2023-04-03T08:33:09;4.00;67.20
72440;DHT22;60446;50.752;4.352;2023-04-03T08:35:40;4.10;67.90
72440;DHT22;60446;50.752;4.352;2023-04-03T08:38:09;4.20;68.30
72440;DHT22;60446;50.752;4.352;2023-04-03T08:40:37;4.10;67.40
72440;DHT22;60446;50.752;4.352;2023-04-03T08:43:36;4.30;67.90
72440;DHT22;60446;50.752;4.352;2023-04-03T08:46:10;4.30;68.10
72440;DHT22;60446;50.752;4.352;2023-04-03T08:48:43;4.40;69.00
72440;DHT22;60446;50.752;4.352;2023-04-03T08:51:15;4.60;65.00
72440;DHT22;60446;50.752;4.352;2023-04-03T08:54:06;4.60;63.90
72440;DHT22;60446;50.752;4.352;2023-04-03T08:56:47;4.60;63.30
72440;DHT22;60446;50.752;4.352;2023-04-03T08:59:18;4.50;62.70
72440;DHT22;60446;50.752;4.352;2023-04-03T09:01:52;4.60;65.40
72440;DHT22;60446;50.752;4.352;2023-04-03T09:04:20;4.70;64.60
72440;DHT22;60446;50.752;4.352;2023-04-03T09:06:57;4.70;65.20
72440;DHT22;60446;50.752;4.352;2023-04-03T09:09:33;4.90;65.60
72440;DHT22;60446;50.752;4.352;2023-04-03T09:12:25;5.00;65.10
72440;DHT22;60446;50.752;4.352;2023-04-03T09:15:02;5.10;63.50
72440;DHT22;60446;50.752;4.352;2023-04-03T09:20:39;5.30;64.70
72440;DHT22;60446;50.752;4.352;2023-04-03T09:23:30;5.40;64.40
72440;DHT22;60446;50.752;4.352;2023-04-03T09:26:29;5.40;61.80
72440;DHT22;60446;50.752;4.352;2023-04-03T09:29:02;5.30;60.30
72440;DHT22;60446;50.752;4.352;2023-04-03T09:31:42;5.40;60.60
72440;DHT22;60446;50.752;4.352;2023-04-03T09:34:20;5.40;61.80
72440;DHT22;60446;50.752;4.352;2023-04-03T09:36:52;5.50;60.20
72440;DHT22;60446;50.752;4.352;2023-04-03T09:39:25;5.50;62.00
72440;DHT22;60446;50.752;4.352;2023-04-03T09:42:04;5.60;63.60
72440;DHT22;60446;50.752;4.352;2023-04-03T09:45:04;5.70;62.00
72440;DHT22;60446;50.752;4.352;2023-04-03T09:47:45;5.90;63.60
72440;DHT22;60446;50.752;4.352;2023-04-03T09:52:40;6.00;58.10
72440;DHT22;60446;50.752;4.352;2023-04-03T09:55:26;5.90;59.90
72440;DHT22;60446;50.752;4.352;2023-04-03T09:57:59;5.90;59.20
72440;DHT22;60446;50.752;4.352;2023-04-03T10:03:04;6.00;58.90
72440;DHT22;60446;50.752;4.352;2023-04-03T10:05:35;6.00;60.20
72440;DHT22;60446;50.752;4.352;2023-04-03T10:10:47;6.00;56.70
72440;DHT22;60446;50.752;4.352;2023-04-03T10:13:20;6.10;58.60
72440;DHT22;60446;50.752;4.352;2023-04-03T10:15:50;6.10;57.80
72440;DHT22;60446;50.752;4.352;2023-04-03T10:37:38;7.20;56.80
72440;DHT22;60446;50.752;4.352;2023-04-03T10:46:21;7.50;56.80
72440;DHT22;60446;50.752;4.352;2023-04-03T10:49:10;7.90;55.20
72440;DHT22;60446;50.752;4.352;2023-04-03T10:57:32;7.40;49.00
72440;DHT22;60446;50.752;4.352;2023-04-03T11:00:06;7.30;53.10
72440;DHT22;60446;50.752;4.352;2023-04-03T11:03:05;7.30;53.50
72440;DHT22;60446;50.752;4.352;2023-04-03T11:05:48;7.60;54.70
72440;DHT22;60446;50.752;4.352;2023-04-03T11:11:03;7.40;50.50
72440;DHT22;60446;50.752;4.352;2023-04-03T11:13:38;7.30;49.00
72440;DHT22;60446;50.752;4.352;2023-04-03T11:16:14;7.30;49.90
72440;DHT22;60446;50.752;4.352;2023-04-03T11:19:02;7.40;53.60
72440;DHT22;60446;50.752;4.352;2023-04-03T11:21:37;7.70;47.50
72440;DHT22;60446;50.752;4.352;2023-04-03T11:24:22;7.70;48.60
72440;DHT22;60446;50.752;4.352;2023-04-03T11:26:52;7.60;49.80
72440;DHT22;60446;50.752;4.352;2023-04-03T11:29:24;7.50;48.90
72440;DHT22;60446;50.752;4.352;2023-04-03T11:32:11;7.50;50.10
72440;DHT22;60446;50.752;4.352;2023-04-03T11:35:02;7.50;49.80
72440;DHT22;60446;50.752;4.352;2023-04-03T11:37:38;7.70;53.60
72440;DHT22;60446;50.752;4.352;2023-04-03T11:40:21;7.80;51.80
72440;DHT22;60446;50.752;4.352;2023-04-03T11:45:58;8.10;50.40
72440;DHT22;60446;50.752;4.352;2023-04-03T11:50:59;8.20;50.60
72440;DHT22;60446;50.752;4.352;2023-04-03T11:53:40;8.40;52.80
72440;DHT22;60446;50.752;4.352;2023-04-03T11:59:16;8.40;49.80
72440;DHT22;60446;50.752;4.352;2023-04-03T12:01:54;8.30;47.90
72440;DHT22;60446;50.752;4.352;2023-04-03T12:04:25;8.20;45.20
72440;DHT22;60446;50.752;4.352;2023-04-03T12:07:02;8.10;49.60
72440;DHT22;60446;50.752;4.352;2023-04-03T12:12:35;8.90;48.70
72440;DHT22;60446;50.752;4.352;2023-04-03T12:27:03;8.30;47.10
72440;DHT22;60446;50.752;4.352;2023-04-03T12:35:26;8.10;47.50
72440;DHT22;60446;50.752;4.352;2023-04-03T12:38:37;8.40;49.70
72440;DHT22;60446;50.752;4.352;2023-04-03T12:47:29;9.00;47.10
72440;DHT22;60446;50.752;4.352;2023-04-03T12:50:00;9.00;44.50
72440;DHT22;60446;50.752;4.352;2023-04-03T12:52:38;8.80;45.80
72440;DHT22;60446;50.752;4.352;2023-04-03T12:55:17;9.00;48.10
72440;DHT22;60446;50.752;4.352;2023-04-03T12:57:47;9.20;45.70
72440;DHT22;60446;50.752;4.352;2023-04-03T13:03:05;8.90;43.10
72440;DHT22;60446;50.752;4.352;2023-04-03T13:05:34;8.90;46.00
72440;DHT22;60446;50.752;4.352;2023-04-03T13:08:06;9.10;45.50
72440;DHT22;60446;50.752;4.352;2023-04-03T13:11:09;9.40;43.60
72440;DHT22;60446;50.752;4.352;2023-04-03T13:13:38;9.10;43.10
72440;DHT22;60446;50.752;4.352;2023-04-03T13:16:10;9.10;43.10
72440;DHT22;60446;50.752;4.352;2023-04-03T13:18:38;9.00;42.30
72440;DHT22;60446;50.752;4.352;2023-04-03T13:21:17;8.90;43.70
72440;DHT22;60446;50.752;4.352;2023-04-03T13:23:51;9.10;43.80
72440;DHT22;60446;50.752;4.352;2023-04-03T13:26:33;9.20;40.90
72440;DHT22;60446;50.752;4.352;2023-04-03T13:29:06;9.20;41.80
72440;DHT22;60446;50.752;4.352;2023-04-03T13:31:43;9.20;42.10
72440;DHT22;60446;50.752;4.352;2023-04-03T13:34:17;9.50;41.50
72440;DHT22;60446;50.752;4.352;2023-04-03T13:39:26;9.80;41.20
72440;DHT22;60446;50.752;4.352;2023-04-03T13:42:00;9.70;41.10
72440;DHT22;60446;50.752;4.352;2023-04-03T13:44:33;9.70;40.40
72440;DHT22;60446;50.752;4.352;2023-04-03T13:47:21;9.70;40.50
72440;DHT22;60446;50.752;4.352;2023-04-03T13:50:23;9.80;41.70
72440;DHT22;60446;50.752;4.352;2023-04-03T13:53:02;10.00;39.60
72440;DHT22;60446;50.752;4.352;2023-04-03T13:55:37;9.90;38.10
72440;DHT22;60446;50.752;4.352;2023-04-03T13:58:24;9.60;36.60
72440;DHT22;60446;50.752;4.352;2023-04-03T14:01:25;9.40;38.70
72440;DHT22;60446;50.752;4.352;2023-04-03T14:03:57;9.60;39.70
72440;DHT22;60446;50.752;4.352;2023-04-03T14:06:29;9.80;37.70
72440;DHT22;60446;50.752;4.352;2023-04-03T14:08:58;9.60;39.30
72440;DHT22;60446;50.752;4.352;2023-04-03T14:11:28;9.90;42.10
72440;DHT22;60446;50.752;4.352;2023-04-03T14:14:01;10.10;37.40
72440;DHT22;60446;50.752;4.352;2023-04-03T14:16:35;9.90;39.40
72440;DHT22;60446;50.752;4.352;2023-04-03T14:19:10;10.10;40.50
72440;DHT22;60446;50.752;4.352;2023-04-03T14:21:44;10.30;40.90
72440;DHT22;60446;50.752;4.352;2023-04-03T14:24:11;10.30;39.70
72440;DHT22;60446;50.752;4.352;2023-04-03T14:26:38;10.20;40.60
72440;DHT22;60446;50.752;4.352;2023-04-03T14:29:06;10.10;40.60
72440;DHT22;60446;50.752;4.352;2023-04-03T14:31:33;10.20;42.00
72440;DHT22;60446;50.752;4.352;2023-04-03T14:34:00;10.20;40.50
72440;DHT22;60446;50.752;4.352;2023-04-03T14:36:29;10.20;42.30
72440;DHT22;60446;50.752;4.352;2023-04-03T14:38:58;10.30;41.30
72440;DHT22;60446;50.752;4.352;2023-04-03T14:41:26;10.40;42.80
72440;DHT22;60446;50.752;4.352;2023-04-03T14:43:53;10.30;38.80
72440;DHT22;60446;50.752;4.352;2023-04-03T14:49:26;10.00;39.10
72440;DHT22;60446;50.752;4.352;2023-04-03T14:51:57;10.00;41.90
72440;DHT22;60446;50.752;4.352;2023-04-03T14:54:25;10.10;39.10
72440;DHT22;60446;50.752;4.352;2023-04-03T14:57:10;10.20;41.20
72440;DHT22;60446;50.752;4.352;2023-04-03T14:59:39;10.20;38.20
72440;DHT22;60446;50.752;4.352;2023-04-03T15:02:31;10.50;37.20
72440;DHT22;60446;50.752;4.352;2023-04-03T15:05:03;10.40;36.90
72440;DHT22;60446;50.752;4.352;2023-04-03T15:07:40;10.60;36.50
72440;DHT22;60446;50.752;4.352;2023-04-03T15:10:27;11.20;39.10
72440;DHT22;60446;50.752;4.352;2023-04-03T15:12:57;12.10;37.40
72440;DHT22;60446;50.752;4.352;2023-04-03T15:15:28;13.00;38.50
72440;DHT22;60446;50.752;4.352;2023-04-03T15:17:56;13.70;33.70
72440;DHT22;60446;50.752;4.352;2023-04-03T15:20:28;13.70;34.50
72440;DHT22;60446;50.752;4.352;2023-04-03T15:22:57;14.00;35.50
72440;DHT22;60446;50.752;4.352;2023-04-03T15:25:27;14.70;35.10
72440;DHT22;60446;50.752;4.352;2023-04-03T15:27:56;15.20;32.80
72440;DHT22;60446;50.752;4.352;2023-04-03T15:30:23;15.30;33.20
72440;DHT22;60446;50.752;4.352;2023-04-03T15:32:54;14.90;32.90
72440;DHT22;60446;50.752;4.352;2023-04-03T15:35:21;14.70;34.00
72440;DHT22;60446;50.752;4.352;2023-04-03T15:37:48;14.90;32.70
72440;DHT22;60446;50.752;4.352;2023-04-03T15:40:16;14.70;31.90
72440;DHT22;60446;50.752;4.352;2023-04-03T15:42:43;14.60;31.20
72440;DHT22;60446;50.752;4.352;2023-04-03T15:45:10;14.80;34.20
72440;DHT22;60446;50.752;4.352;2023-04-03T15:47:37;14.50;32.80
72440;DHT22;60446;50.752;4.352;2023-04-03T15:50:06;13.80;34.50
72440;DHT22;60446;50.752;4.352;2023-04-03T15:52:35;13.20;33.80
72440;DHT22;60446;50.752;4.352;2023-04-03T15:55:03;12.90;35.20
72440;DHT22;60446;50.752;4.352;2023-04-03T15:57:30;12.80;36.00
72440;DHT22;60446;50.752;4.352;2023-04-03T15:59:57;12.90;36.00
72440;DHT22;60446;50.752;4.352;2023-04-03T16:02:24;12.90;34.70
72440;DHT22;60446;50.752;4.352;2023-04-03T16:04:54;12.60;35.20
72440;DHT22;60446;50.752;4.352;2023-04-03T16:07:22;12.30;35.20
72440;DHT22;60446;50.752;4.352;2023-04-03T16:09:49;12.60;36.30
72440;DHT22;60446;50.752;4.352;2023-04-03T16:12:16;12.60;35.50
72440;DHT22;60446;50.752;4.352;2023-04-03T16:14:43;12.80;36.20
72440;DHT22;60446;50.752;4.352;2023-04-03T16:17:11;12.80;35.30
72440;DHT22;60446;50.752;4.352;2023-04-03T16:19:38;12.10;35.50
72440;DHT22;60446;50.752;4.352;2023-04-03T16:22:05;11.00;37.90
72440;DHT22;60446;50.752;4.352;2023-04-03T16:24:32;10.30;39.40
72440;DHT22;60446;50.752;4.352;2023-04-03T16:26:59;9.90;40.10
72440;DHT22;60446;50.752;4.352;2023-04-03T16:29:27;9.50;41.10
72440;DHT22;60446;50.752;4.352;2023-04-03T16:31:54;9.30;40.30
72440;DHT22;60446;50.752;4.352;2023-04-03T16:34:21;9.10;40.10
72440;DHT22;60446;50.752;4.352;2023-04-03T16:36:48;9.00;42.40
72440;DHT22;60446;50.752;4.352;2023-04-03T16:39:16;8.90;42.10
72440;DHT22;60446;50.752;4.352;2023-04-03T16:41:43;8.80;42.20
72440;DHT22;60446;50.752;4.352;2023-04-03T16:44:10;8.70;42.40
72440;DHT22;60446;50.752;4.352;2023-04-03T16:46:37;8.60;43.80
72440;DHT22;60446;50.752;4.352;2023-04-03T16:49:05;8.50;43.40
72440;DHT22;60446;50.752;4.352;2023-04-03T16:51:32;8.40;44.20
72440;DHT22;60446;50.752;4.352;2023-04-03T16:53:59;8.40;43.20
72440;DHT22;60446;50.752;4.352;2023-04-03T16:56:27;8.40;42.90
72440;DHT22;60446;50.752;4.352;2023-04-03T16:58:54;8.40;43.00
72440;DHT22;60446;50.752;4.352;2023-04-03T17:01:22;8.30;43.00
72440;DHT22;60446;50.752;4.352;2023-04-03T17:03:49;8.30;43.50
72440;DHT22;60446;50.752;4.352;2023-04-03T17:06:19;8.20;44.50
72440;DHT22;60446;50.752;4.352;2023-04-03T17:08:47;8.10;44.00
72440;DHT22;60446;50.752;4.352;2023-04-03T17:11:28;8.00;44.90
72440;DHT22;60446;50.752;4.352;2023-04-03T17:13:57;7.90;45.20
72440;DHT22;60446;50.752;4.352;2023-04-03T17:16:24;7.90;44.60
72440;DHT22;60446;50.752;4.352;2023-04-03T17:18:52;7.90;44.30
72440;DHT22;60446;50.752;4.352;2023-04-03T17:21:20;7.90;43.80
72440;DHT22;60446;50.752;4.352;2023-04-03T17:23:51;7.80;45.30
72440;DHT22;60446;50.752;4.352;2023-04-03T17:26:25;7.80;44.60
72440;DHT22;60446;50.752;4.352;2023-04-03T17:28:53;7.80;44.70
72440;DHT22;60446;50.752;4.352;2023-04-03T17:31:20;7.70;45.30
72440;DHT22;60446;50.752;4.352;2023-04-03T17:33:47;7.70;45.30
72440;DHT22;60446;50.752;4.352;2023-04-03T17:36:14;7.70;44.90
72440;DHT22;60446;50.752;4.352;2023-04-03T17:38:41;7.60;44.80